Time;durP1;ratioP1;P1;durP2;ratioP2;P2;SDS_P1;SDS_P2;PMS_P1;PMS_P2;Temp;Humidity;BMP_temperature;BMP_pressure;BME280_temperature;BME280_humidity;BME280_pressure;Samples;Min_cycle;Max_cycle;Signal;HPM_P1;HPM_P2
2021/10/29 00:02:17;;;;;;;5.38;4.90;;;;;;;;;;5058623;28;20195;-77
2021/10/29 00:04:44;;;;;;;4.95;4.50;;;;;;;;;;5068471;28;20548;-79
2021/10/29 00:07:12;;;;;;;4.88;4.35;;;;;;;;;;5059062;28;20198;-77
2021/10/29 00:09:39;;;;;;;4.55;4.15;;;;;;;;;;5070629;28;20574;-78
2021/10/29 00:12:06;;;;;;;5.10;4.60;;;;;;;;;;5060144;28;20683;-78
2021/10/29 00:14:34;;;;;;;5.57;4.55;;;;;;;;;;5056572;28;20203;-77
2021/10/29 00:17:03;;;;;;;4.90;4.50;;;;;;;;;;5073089;28;20223;-77
2021/10/29 00:19:30;;;;;;;3.97;3.38;;;;;;;;;;5073261;28;20203;-77
2021/10/29 00:21:57;;;;;;;7.80;4.78;;;;;;;;;;5061221;28;20650;-77
2021/10/29 00:24:25;;;;;;;5.55;4.93;;;;;;;;;;5069033;28;20194;-76
2021/10/29 00:26:52;;;;;;;4.43;4.00;;;;;;;;;;5072023;28;20206;-76
2021/10/29 00:29:20;;;;;;;5.82;4.93;;;;;;;;;;5071420;28;20191;-78
2021/10/29 00:31:47;;;;;;;5.03;4.30;;;;;;;;;;5066571;28;20230;-79
2021/10/29 00:34:16;;;;;;;4.40;3.88;;;;;;;;;;5066740;28;20234;-76
2021/10/29 00:36:44;;;;;;;4.35;3.95;;;;;;;;;;5068488;28;20226;-77
2021/10/29 00:39:11;;;;;;;4.43;4.03;;;;;;;;;;5069730;28;20760;-77
2021/10/29 00:41:38;;;;;;;5.60;3.58;;;;;;;;;;5065825;28;20198;-77
2021/10/29 00:44:06;;;;;;;4.30;3.63;;;;;;;;;;5062769;28;20203;-79
2021/10/29 00:46:33;;;;;;;4.60;4.20;;;;;;;;;;5071141;28;20199;-76
2021/10/29 00:49:00;;;;;;;4.30;3.88;;;;;;;;;;5072014;28;20195;-77
2021/10/29 00:51:29;;;;;;;3.60;3.25;;;;;;;;;;5075565;28;20636;-77
2021/10/29 00:53:56;;;;;;;4.57;4.18;;;;;;;;;;5059873;28;20213;-79
2021/10/29 00:56:23;;;;;;;5.47;4.97;;;;;;;;;;5067824;28;20229;-77
2021/10/29 00:58:50;;;;;;;4.68;3.90;;;;;;;;;;5056996;28;20668;-77
2021/10/29 01:01:17;;;;;;;5.30;3.60;;;;;;;;;;5065699;28;20482;-77
2021/10/29 01:03:44;;;;;;;4.97;4.47;;;;;;;;;;5072082;28;20658;-78
2021/10/29 01:06:12;;;;;;;6.70;4.05;;;;;;;;;;5054610;28;20678;-76
2021/10/29 01:08:41;;;;;;;5.15;3.53;;;;;;;;;;5060502;28;20261;-77
2021/10/29 01:11:12;;;;;;;3.70;3.40;;;;;;;;;;5065159;28;20187;-77
2021/10/29 01:13:39;;;;;;;5.38;4.82;;;;;;;;;;5070310;28;20589;-77
2021/10/29 01:16:07;;;;;;;3.72;3.25;;;;;;;;;;5056566;28;20222;-78
2021/10/29 01:18:34;;;;;;;4.03;3.40;;;;;;;;;;5068725;28;20814;-77
2021/10/29 01:21:02;;;;;;;4.30;3.90;;;;;;;;;;5051984;28;20195;-78
2021/10/29 01:23:29;;;;;;;3.75;3.40;;;;;;;;;;5053487;28;20210;-77
2021/10/29 01:26:01;;;;;;;3.70;3.33;;;;;;;;;;5057847;28;20203;-77
2021/10/29 01:28:28;;;;;;;4.32;3.60;;;;;;;;;;5063936;28;20198;-77
2021/10/29 01:30:55;;;;;;;3.40;3.10;;;;;;;;;;5065473;28;20202;-78
2021/10/29 01:33:22;;;;;;;5.03;3.50;;;;;;;;;;5063259;28;20543;-78
2021/10/29 01:35:50;;;;;;;5.20;4.25;;;;;;;;;;5060641;28;20199;-78
2021/10/29 01:38:18;;;;;;;3.92;3.30;;;;;;;;;;5061719;28;20249;-77
2021/10/29 01:40:45;;;;;;;3.42;3.10;;;;;;;;;;5071378;28;20205;-78
2021/10/29 01:43:12;;;;;;;5.57;4.35;;;;;;;;;;5069203;28;20201;-77
2021/10/29 01:45:39;;;;;;;3.58;2.75;;;;;;;;;;5067419;28;20199;-77
2021/10/29 01:48:07;;;;;;;4.32;3.80;;;;;;;;;;5061234;28;20218;-77
2021/10/29 01:50:34;;;;;;;3.50;3.20;;;;;;;;;;5056030;28;20194;-77
2021/10/29 01:53:01;;;;;;;4.38;3.50;;;;;;;;;;5051880;28;20681;-77
2021/10/29 01:55:29;;;;;;;4.15;3.30;;;;;;;;;;5057759;28;20214;-77
2021/10/29 01:57:57;;;;;;;4.10;3.70;;;;;;;;;;5063032;28;20222;-77
2021/10/29 02:00:24;;;;;;;3.15;2.85;;;;;;;;;;5051517;28;20223;-76
2021/10/29 02:02:51;;;;;;;3.67;3.25;;;;;;;;;;5051839;28;20637;-78
2021/10/29 02:05:18;;;;;;;3.70;3.40;;;;;;;;;;5050677;28;20200;-77
2021/10/29 02:07:46;;;;;;;3.00;2.70;;;;;;;;;;5053563;28;20215;-78
2021/10/29 02:10:13;;;;;;;3.83;3.42;;;;;;;;;;5072686;28;20705;-77
2021/10/29 02:12:42;;;;;;;5.18;3.30;;;;;;;;;;5070178;28;20210;-78
2021/10/29 02:15:10;;;;;;;4.13;3.10;;;;;;;;;;5057999;28;20651;-78
2021/10/29 02:17:37;;;;;;;4.10;2.95;;;;;;;;;;5058518;28;20211;-78
2021/10/29 02:20:05;;;;;;;3.13;2.50;;;;;;;;;;5051566;28;20208;-78
2021/10/29 02:22:32;;;;;;;4.80;3.15;;;;;;;;;;5062705;28;20207;-78
2021/10/29 02:24:59;;;;;;;5.20;3.00;;;;;;;;;;5073752;28;20195;-79
2021/10/29 02:27:26;;;;;;;5.13;3.25;;;;;;;;;;5069865;28;20196;-79
2021/10/29 02:29:55;;;;;;;3.30;2.70;;;;;;;;;;5054160;28;20540;-79
2021/10/29 02:32:22;;;;;;;4.53;2.90;;;;;;;;;;5060313;28;20670;-77
2021/10/29 02:34:49;;;;;;;3.85;2.70;;;;;;;;;;5060015;28;20199;-77
2021/10/29 02:37:16;;;;;;;3.15;2.85;;;;;;;;;;5056036;28;20735;-77
2021/10/29 02:39:43;;;;;;;2.85;2.65;;;;;;;;;;5066059;28;20199;-77
2021/10/29 02:42:10;;;;;;;2.97;2.70;;;;;;;;;;5061327;28;20199;-76
2021/10/29 02:44:37;;;;;;;3.00;2.70;;;;;;;;;;5062732;28;20646;-76
2021/10/29 02:47:06;;;;;;;4.00;2.85;;;;;;;;;;5056433;28;20196;-78
2021/10/29 02:49:33;;;;;;;6.35;3.00;;;;;;;;;;5066501;28;20207;-78
2021/10/29 02:52:00;;;;;;;2.75;2.40;;;;;;;;;;5062544;28;20195;-78
2021/10/29 02:54:27;;;;;;;3.22;2.72;;;;;;;;;;5070409;28;20654;-77
2021/10/29 02:56:54;;;;;;;3.20;2.90;;;;;;;;;;5071166;28;20199;-77
2021/10/29 02:59:21;;;;;;;4.63;2.35;;;;;;;;;;5059631;28;20203;-77
2021/10/29 03:01:48;;;;;;;2.70;2.50;;;;;;;;;;5056691;28;20195;-76
2021/10/29 03:04:16;;;;;;;3.55;3.25;;;;;;;;;;5068353;28;20988;-78
2021/10/29 03:06:43;;;;;;;4.53;2.47;;;;;;;;;;5088814;28;20802;-78
2021/10/29 03:09:11;;;;;;;3.75;3.00;;;;;;;;;;5089513;28;20240;-78
2021/10/29 03:11:38;;;;;;;2.25;2.05;;;;;;;;;;5077880;28;20210;-78
2021/10/29 03:14:05;;;;;;;3.30;3.00;;;;;;;;;;5061721;28;20195;-77
2021/10/29 03:16:32;;;;;;;3.08;2.60;;;;;;;;;;5065544;28;20200;-77
2021/10/29 03:18:59;;;;;;;3.60;2.72;;;;;;;;;;5067752;28;20219;-76
2021/10/29 03:21:27;;;;;;;3.38;2.28;;;;;;;;;;5064945;28;20214;-76
2021/10/29 03:23:54;;;;;;;3.95;3.53;;;;;;;;;;5062389;28;20227;-76
2021/10/29 03:26:21;;;;;;;3.13;2.83;;;;;;;;;;5058823;28;20204;-77
2021/10/29 03:28:48;;;;;;;2.97;2.22;;;;;;;;;;5067193;28;20210;-78
2021/10/29 03:31:16;;;;;;;3.58;2.65;;;;;;;;;;5059493;28;20195;-77
2021/10/29 03:33:43;;;;;;;2.67;2.47;;;;;;;;;;5056058;28;20226;-77
2021/10/29 03:36:10;;;;;;;2.83;2.63;;;;;;;;;;5072999;28;20202;-76
2021/10/29 03:38:45;;;;;;;3.45;3.15;;;;;;;;;;5061658;28;20227;-77
2021/10/29 03:41:16;;;;;;;3.83;2.42;;;;;;;;;;5067637;28;20221;-77
2021/10/29 03:43:47;;;;;;;4.30;2.65;;;;;;;;;;5064732;28;20206;-78
2021/10/29 03:46:16;;;;;;;3.05;2.75;;;;;;;;;;5059978;28;20200;-79
2021/10/29 03:48:53;;;;;;;2.50;2.28;;;;;;;;;;5070822;28;20218;-79
2021/10/29 03:51:22;;;;;;;3.33;2.65;;;;;;;;;;5063146;28;20200;-80
2021/10/29 03:53:54;;;;;;;2.72;2.35;;;;;;;;;;5068856;28;20216;-80
2021/10/29 03:56:23;;;;;;;2.60;2.40;;;;;;;;;;5069335;28;20297;-78
2021/10/29 03:58:51;;;;;;;4.32;2.65;;;;;;;;;;5065946;28;20769;-79
2021/10/29 04:01:18;;;;;;;3.78;3.10;;;;;;;;;;5072241;28;20689;-79
2021/10/29 04:03:45;;;;;;;4.25;2.95;;;;;;;;;;5073166;28;20204;-79
2021/10/29 04:06:12;;;;;;;2.55;2.35;;;;;;;;;;5068905;28;20639;-79
2021/10/29 04:08:39;;;;;;;2.33;2.10;;;;;;;;;;5065009;28;20710;-80
2021/10/29 04:11:08;;;;;;;2.95;2.65;;;;;;;;;;5077124;28;20209;-77
2021/10/29 04:13:37;;;;;;;2.38;2.17;;;;;;;;;;5083761;28;20195;-77
2021/10/29 04:16:05;;;;;;;5.00;2.53;;;;;;;;;;5068065;28;20207;-78
2021/10/29 04:18:33;;;;;;;3.20;2.78;;;;;;;;;;5054446;28;20219;-77
2021/10/29 04:21:00;;;;;;;4.80;3.40;;;;;;;;;;5065795;28;20233;-78
2021/10/29 04:23:27;;;;;;;3.53;2.83;;;;;;;;;;5073826;28;20840;-79
2021/10/29 04:25:55;;;;;;;3.70;2.70;;;;;;;;;;5079760;28;20210;-79
2021/10/29 04:28:24;;;;;;;4.00;2.97;;;;;;;;;;5071535;28;20187;-78
2021/10/29 04:30:52;;;;;;;4.78;2.60;;;;;;;;;;5071832;28;20202;-78
2021/10/29 04:33:19;;;;;;;4.10;3.20;;;;;;;;;;5063164;28;20199;-79
2021/10/29 04:35:47;;;;;;;2.88;2.60;;;;;;;;;;5064225;28;20535;-78
2021/10/29 04:38:15;;;;;;;3.03;2.45;;;;;;;;;;5070013;28;20222;-78
2021/10/29 04:40:42;;;;;;;3.00;2.42;;;;;;;;;;5085620;28;20234;-78
2021/10/29 04:43:10;;;;;;;2.53;2.30;;;;;;;;;;5065501;28;20199;-78
2021/10/29 04:45:38;;;;;;;3.50;2.60;;;;;;;;;;5064201;28;20602;-77
2021/10/29 04:48:06;;;;;;;2.80;2.60;;;;;;;;;;5074115;28;20205;-78
2021/10/29 04:50:33;;;;;;;3.15;2.50;;;;;;;;;;5083463;28;20677;-78
2021/10/29 04:53:00;;;;;;;3.17;2.85;;;;;;;;;;5060950;28;20206;-77
2021/10/29 04:55:28;;;;;;;2.95;2.20;;;;;;;;;;5062932;28;20218;-78
2021/10/29 04:57:56;;;;;;;3.70;3.30;;;;;;;;;;5065439;28;20211;-77
2021/10/29 05:00:24;;;;;;;3.13;2.83;;;;;;;;;;5084579;28;20195;-78
2021/10/29 05:02:54;;;;;;;4.07;2.60;;;;;;;;;;5067060;28;20199;-78
2021/10/29 05:05:21;;;;;;;3.70;2.70;;;;;;;;;;5061757;28;20254;-78
2021/10/29 05:07:49;;;;;;;7.05;3.20;;;;;;;;;;5069154;28;20198;-79
2021/10/29 05:10:16;;;;;;;3.10;2.65;;;;;;;;;;5073723;28;20233;-78
2021/10/29 05:12:45;;;;;;;4.38;2.90;;;;;;;;;;5072803;28;20226;-78
2021/10/29 05:15:12;;;;;;;4.10;3.78;;;;;;;;;;5067622;28;20194;-78
2021/10/29 05:17:43;;;;;;;3.55;3.00;;;;;;;;;;5069150;28;20205;-78
2021/10/29 05:20:12;;;;;;;3.88;2.90;;;;;;;;;;5065950;28;20229;-78
2021/10/29 05:22:39;;;;;;;3.05;2.75;;;;;;;;;;5061195;28;20191;-78
2021/10/29 05:25:07;;;;;;;3.30;2.70;;;;;;;;;;5063888;28;20196;-77
2021/10/29 05:27:34;;;;;;;4.03;3.58;;;;;;;;;;5065664;28;20565;-79
2021/10/29 05:30:01;;;;;;;3.97;3.10;;;;;;;;;;5069796;28;20622;-79
2021/10/29 05:32:28;;;;;;;3.60;3.22;;;;;;;;;;5056112;28;20209;-79
2021/10/29 05:35:00;;;;;;;4.75;3.38;;;;;;;;;;5067580;28;20293;-79
2021/10/29 05:37:28;;;;;;;3.15;2.60;;;;;;;;;;5063077;28;20206;-78
2021/10/29 05:39:55;;;;;;;3.45;2.90;;;;;;;;;;5068155;28;20218;-79
2021/10/29 05:42:22;;;;;;;3.40;2.78;;;;;;;;;;5063454;28;20191;-79
2021/10/29 05:44:49;;;;;;;6.78;3.55;;;;;;;;;;5061623;28;20198;-79
2021/10/29 05:47:16;;;;;;;5.88;3.83;;;;;;;;;;5058695;28;21675;-79
2021/10/29 05:49:44;;;;;;;4.25;3.17;;;;;;;;;;5064633;28;20673;-79
2021/10/29 05:52:15;;;;;;;5.22;3.00;;;;;;;;;;5067399;28;20198;-78
2021/10/29 05:57:43;;;;;;;5.80;3.50;;;;;;;;;;4995548;28;20219;-80
2021/10/29 06:00:11;;;;;;;6.28;3.63;;;;;;;;;;5015538;28;20627;-79
2021/10/29 06:02:39;;;;;;;5.43;2.83;;;;;;;;;;5026881;28;20612;-81
2021/10/29 06:05:06;;;;;;;6.75;3.17;;;;;;;;;;5071664;28;20195;-80
2021/10/29 06:07:33;;;;;;;6.35;3.25;;;;;;;;;;5062182;28;20670;-80
2021/10/29 06:10:02;;;;;;;4.28;3.70;;;;;;;;;;5069393;28;20215;-80
2021/10/29 06:12:29;;;;;;;5.05;3.28;;;;;;;;;;5065947;28;20252;-80
2021/10/29 06:14:56;;;;;;;3.90;3.58;;;;;;;;;;5070927;28;20198;-80
2021/10/29 06:17:26;;;;;;;4.68;3.47;;;;;;;;;;5060263;28;20593;-81
2021/10/29 06:19:53;;;;;;;5.35;3.85;;;;;;;;;;5052055;28;20582;-81
2021/10/29 06:22:23;;;;;;;4.78;3.67;;;;;;;;;;5052075;28;20195;-81
2021/10/29 06:24:51;;;;;;;5.53;3.65;;;;;;;;;;5063025;28;20665;-79
2021/10/29 06:30:05;;;;;;;4.95;3.83;;;;;;;;;;5067725;28;20202;-82
2021/10/29 06:32:32;;;;;;;5.10;4.47;;;;;;;;;;5062707;28;20221;-83
2021/10/29 06:34:59;;;;;;;8.40;2.95;;;;;;;;;;5058652;28;20204;-80
2021/10/29 06:37:26;;;;;;;4.90;3.40;;;;;;;;;;5061280;28;20203;-80
2021/10/29 06:39:54;;;;;;;6.20;3.40;;;;;;;;;;5068877;28;20215;-80
2021/10/29 06:42:26;;;;;;;5.28;3.65;;;;;;;;;;5066823;28;20685;-79
2021/10/29 06:45:05;;;;;;;7.22;3.65;;;;;;;;;;5067479;28;20225;-78
2021/10/29 06:47:46;;;;;;;13.00;4.22;;;;;;;;;;5064833;28;20213;-78
2021/10/29 07:01:18;;;;;;;3.78;3.45;;;;;;;;;;5062652;28;20248;-78
2021/10/29 07:42:27;;;;;;;4.47;4.05;;;;;;;;;;5057198;28;20329;-79
2021/10/29 07:44:54;;;;;;;6.72;3.25;;;;;;;;;;5063819;28;20666;-79
2021/10/29 07:47:23;;;;;;;4.45;3.70;;;;;;;;;;5068784;28;20245;-80
2021/10/29 07:49:50;;;;;;;4.93;3.55;;;;;;;;;;5064947;28;20638;-79
2021/10/29 07:52:17;;;;;;;4.60;3.70;;;;;;;;;;5060104;28;20203;-79
2021/10/29 07:54:45;;;;;;;8.55;4.13;;;;;;;;;;5061601;28;20264;-78
2021/10/29 07:57:12;;;;;;;3.33;3.03;;;;;;;;;;5070032;28;20264;-79
2021/10/29 07:59:40;;;;;;;3.70;3.15;;;;;;;;;;5057939;28;20785;-79
2021/10/29 08:02:07;;;;;;;4.07;2.85;;;;;;;;;;5056624;28;20643;-79
2021/10/29 08:04:36;;;;;;;4.45;3.30;;;;;;;;;;5063468;28;20207;-78
2021/10/29 08:07:03;;;;;;;5.30;3.30;;;;;;;;;;5055317;28;20214;-78
2021/10/29 08:12:34;;;;;;;3.08;2.78;;;;;;;;;;5066249;28;20185;-77
2021/10/29 08:15:03;;;;;;;3.50;3.03;;;;;;;;;;5054658;28;20200;-78
2021/10/29 08:17:31;;;;;;;4.18;3.75;;;;;;;;;;5053110;28;20218;-80
2021/10/29 08:20:00;;;;;;;4.65;2.60;;;;;;;;;;5054271;28;20215;-77
2021/10/29 08:22:27;;;;;;;3.88;3.45;;;;;;;;;;5056098;28;20253;-78
2021/10/29 08:24:54;;;;;;;4.13;3.72;;;;;;;;;;5053685;28;20206;-77
2021/10/29 08:27:22;;;;;;;4.35;3.35;;;;;;;;;;5049639;28;20796;-78
2021/10/29 08:29:49;;;;;;;3.17;2.83;;;;;;;;;;5057860;28;20215;-77
2021/10/29 08:32:16;;;;;;;3.20;2.90;;;;;;;;;;5059590;28;20191;-79
2021/10/29 08:34:43;;;;;;;3.80;2.92;;;;;;;;;;5070290;28;20213;-79
2021/10/29 08:37:12;;;;;;;2.50;2.30;;;;;;;;;;5072541;28;20227;-79
2021/10/29 08:39:39;;;;;;;3.67;3.30;;;;;;;;;;5062766;28;20216;-78
2021/10/29 08:42:07;;;;;;;6.38;2.92;;;;;;;;;;5055772;28;21654;-79
2021/10/29 08:44:35;;;;;;;3.60;3.30;;;;;;;;;;5060874;28;20198;-79
2021/10/29 08:47:03;;;;;;;3.67;3.38;;;;;;;;;;5061049;28;20665;-79
2021/10/29 08:49:33;;;;;;;2.65;2.42;;;;;;;;;;5052324;28;20195;-79
2021/10/29 08:52:01;;;;;;;3.40;3.10;;;;;;;;;;5057746;28;20195;-79
2021/10/29 08:54:30;;;;;;;3.80;3.50;;;;;;;;;;5059164;28;20293;-79
2021/10/29 08:56:57;;;;;;;4.15;3.28;;;;;;;;;;5055885;28;20605;-79
2021/10/29 08:59:28;;;;;;;3.33;2.67;;;;;;;;;;5055160;28;20215;-79
2021/10/29 09:01:57;;;;;;;4.15;2.70;;;;;;;;;;5056214;28;20650;-79
2021/10/29 09:04:36;;;;;;;2.50;2.30;;;;;;;;;;5053054;28;20280;-77
2021/10/29 09:07:15;;;;;;;3.65;3.35;;;;;;;;;;5053901;28;20219;-79
2021/10/29 09:10:13;;;;;;;3.25;2.65;;;;;;;;;;5053018;28;20238;-81
2021/10/29 09:32:03;;;;;;;3.22;2.85;;;;;;;;;;5045101;28;20693;-77
2021/10/29 09:34:30;;;;;;;3.28;2.97;;;;;;;;;;5047784;28;20241;-78
2021/10/29 09:36:57;;;;;;;4.78;3.70;;;;;;;;;;5049411;28;20693;-77
2021/10/29 09:39:26;;;;;;;3.63;2.80;;;;;;;;;;5046535;28;20246;-77
2021/10/29 09:42:05;;;;;;;3.90;3.10;;;;;;;;;;5045647;28;20211;-76
2021/10/29 09:44:39;;;;;;;4.07;3.15;;;;;;;;;;5047947;28;20578;-77
2021/10/29 09:47:06;;;;;;;3.20;2.75;;;;;;;;;;5047712;28;20211;-77
2021/10/29 09:49:36;;;;;;;3.45;3.00;;;;;;;;;;5045753;28;20211;-77
2021/10/29 09:52:32;;;;;;;3.55;2.72;;;;;;;;;;5046927;28;20791;-77
2021/10/29 09:55:12;;;;;;;3.05;2.85;;;;;;;;;;5048081;28;20210;-77
2021/10/29 09:57:41;;;;;;;3.30;2.45;;;;;;;;;;5045646;28;20207;-77
2021/10/29 10:00:09;;;;;;;4.72;3.15;;;;;;;;;;5050910;28;20247;-77
2021/10/29 10:02:40;;;;;;;4.63;3.47;;;;;;;;;;5049863;28;20203;-77
2021/10/29 10:05:08;;;;;;;3.65;3.15;;;;;;;;;;5051834;28;20214;-77
2021/10/29 10:07:36;;;;;;;3.45;2.70;;;;;;;;;;5053432;28;20218;-77
2021/10/29 10:10:04;;;;;;;5.03;3.60;;;;;;;;;;5053610;28;20578;-77
2021/10/29 10:12:34;;;;;;;3.17;2.97;;;;;;;;;;5063669;28;20206;-77
2021/10/29 10:15:03;;;;;;;3.17;2.88;;;;;;;;;;5065651;28;20190;-77
2021/10/29 10:17:31;;;;;;;6.03;3.00;;;;;;;;;;5050576;28;20670;-77
2021/10/29 10:19:58;;;;;;;3.63;3.00;;;;;;;;;;5047848;28;20241;-77
2021/10/29 10:22:27;;;;;;;3.60;2.72;;;;;;;;;;5050138;28;20195;-76
2021/10/29 10:24:58;;;;;;;3.25;2.95;;;;;;;;;;5054457;28;20203;-77
2021/10/29 10:30:15;;;;;;;5.00;3.50;;;;;;;;;;5047139;28;20299;-77
2021/10/29 10:41:36;;;;;;;3.85;3.13;;;;;;;;;;5064895;28;20242;-76
2021/10/29 10:46:56;;;;;;;2.88;2.63;;;;;;;;;;5048811;28;20284;-76
2021/10/29 10:49:33;;;;;;;3.60;2.95;;;;;;;;;;5055745;28;20507;-77
2021/10/29 10:52:06;;;;;;;3.25;2.95;;;;;;;;;;5058372;28;20562;-77
2021/10/29 10:54:44;;;;;;;5.72;4.03;;;;;;;;;;5069794;28;20233;-77
2021/10/29 10:57:18;;;;;;;3.63;2.85;;;;;;;;;;5054129;28;20916;-77
2021/10/29 10:59:56;;;;;;;3.40;3.10;;;;;;;;;;5056097;28;20222;-77
2021/10/29 11:05:31;;;;;;;3.42;3.10;;;;;;;;;;5064787;28;20670;-77
2021/10/29 11:10:55;;;;;;;3.13;2.83;;;;;;;;;;5054818;28;20732;-77
2021/10/29 11:13:22;;;;;;;3.10;2.80;;;;;;;;;;5064797;28;20650;-77
2021/10/29 11:15:58;;;;;;;3.38;3.00;;;;;;;;;;5060731;28;20199;-76
2021/10/29 11:18:35;;;;;;;3.22;2.92;;;;;;;;;;5057433;28;20221;-77
2021/10/29 11:21:06;;;;;;;5.22;3.00;;;;;;;;;;5054096;28;20322;-77
2021/10/29 11:23:35;;;;;;;3.65;3.35;;;;;;;;;;5054035;28;20196;-77
2021/10/29 11:26:04;;;;;;;2.58;2.35;;;;;;;;;;5063766;28;20287;-78
2021/10/29 11:28:33;;;;;;;3.25;2.92;;;;;;;;;;5066839;28;20195;-77
2021/10/29 11:31:00;;;;;;;3.72;2.80;;;;;;;;;;5063440;28;20198;-79
2021/10/29 11:33:30;;;;;;;3.65;3.08;;;;;;;;;;5060511;28;20540;-79
2021/10/29 11:35:58;;;;;;;3.15;2.85;;;;;;;;;;5050163;28;20195;-79
2021/10/29 11:38:25;;;;;;;4.82;3.25;;;;;;;;;;5057453;28;20616;-77
2021/10/29 11:40:53;;;;;;;3.88;2.90;;;;;;;;;;5069012;28;20242;-79
2021/10/29 11:43:24;;;;;;;3.67;2.78;;;;;;;;;;5071419;28;20195;-79
2021/10/29 11:45:51;;;;;;;4.45;3.05;;;;;;;;;;5061973;28;20656;-80
2021/10/29 11:48:19;;;;;;;3.50;3.20;;;;;;;;;;5061869;28;20199;-79
2021/10/29 11:50:48;;;;;;;3.97;3.40;;;;;;;;;;5062899;28;20281;-79
2021/10/29 11:53:16;;;;;;;3.40;3.10;;;;;;;;;;5060026;28;20372;-78
2021/10/29 11:55:47;;;;;;;6.47;3.03;;;;;;;;;;5062033;28;20194;-79
2021/10/29 11:58:20;;;;;;;3.55;3.05;;;;;;;;;;5061315;28;20313;-78
2021/10/29 12:07:13;;;;;;;3.05;2.67;;;;;;;;;;5059416;28;20201;-78
2021/10/29 12:09:21;;;;;;;3.60;3.30;;;;;;;;;;5058084;28;20335;-78
2021/10/29 12:11:54;;;;;;;4.55;3.30;;;;;;;;;;5061780;28;20577;-78
2021/10/29 12:14:21;;;;;;;3.97;3.45;;;;;;;;;;5060873;28;20558;-78
2021/10/29 12:16:49;;;;;;;3.05;2.67;;;;;;;;;;5058901;28;20195;-78
2021/10/29 12:19:23;;;;;;;3.10;2.80;;;;;;;;;;5062326;28;20708;-78
2021/10/29 12:22:02;;;;;;;4.50;2.83;;;;;;;;;;5061326;28;20658;-78
2021/10/29 12:24:29;;;;;;;3.65;2.72;;;;;;;;;;5062254;28;20283;-78
2021/10/29 12:26:59;;;;;;;3.40;2.70;;;;;;;;;;5058642;28;20594;-78
2021/10/29 12:29:27;;;;;;;3.47;3.17;;;;;;;;;;5058985;28;20591;-79
2021/10/29 12:32:27;;;;;;;2.83;2.63;;;;;;;;;;5059715;28;20206;-78
2021/10/29 12:52:08;;;;;;;4.35;2.20;;;;;;;;;;5028387;28;20190;-78
2021/10/29 13:03:02;;;;;;;3.13;2.40;;;;;;;;;;5057460;28;20194;-78
2021/10/29 13:05:29;;;;;;;3.10;2.45;;;;;;;;;;5058754;28;20195;-78
2021/10/29 13:07:56;;;;;;;2.42;2.22;;;;;;;;;;5051254;28;20198;-79
2021/10/29 13:10:25;;;;;;;4.57;2.50;;;;;;;;;;5059296;28;20261;-78
2021/10/29 13:12:59;;;;;;;3.20;2.80;;;;;;;;;;5059025;28;20217;-78
2021/10/29 13:15:27;;;;;;;2.85;2.38;;;;;;;;;;5060330;28;20195;-79
2021/10/29 13:17:55;;;;;;;2.92;2.40;;;;;;;;;;5058577;28;21773;-79
2021/10/29 13:28:51;;;;;;;6.47;2.55;;;;;;;;;;5060431;28;20213;-78
2021/10/29 13:34:28;;;;;;;3.17;2.40;;;;;;;;;;5058004;28;20203;-78
2021/10/29 13:36:59;;;;;;;3.70;2.35;;;;;;;;;;5061950;28;20202;-77
2021/10/29 13:53:25;;;;;;;3.17;2.30;;;;;;;;;;5060939;28;20735;-77
2021/10/29 13:56:00;;;;;;;2.60;2.40;;;;;;;;;;5063648;28;20218;-79
2021/10/29 14:28:44;;;;;;;3.65;2.20;;;;;;;;;;5061158;28;20301;-77
2021/10/29 14:31:18;;;;;;;2.72;2.25;;;;;;;;;;5060081;28;20290;-78
2021/10/29 14:33:51;;;;;;;5.30;2.85;;;;;;;;;;5057097;28;20572;-79
2021/10/29 14:36:20;;;;;;;3.45;2.65;;;;;;;;;;5057119;28;20693;-79
2021/10/29 14:38:59;;;;;;;2.25;2.05;;;;;;;;;;5061836;28;20277;-80
2021/10/29 14:41:35;;;;;;;2.95;2.55;;;;;;;;;;5063927;28;20219;-79
2021/10/29 14:44:07;;;;;;;2.40;2.13;;;;;;;;;;5063879;28;20195;-82
2021/10/29 14:49:45;;;;;;;3.35;2.30;;;;;;;;;;5062121;28;20199;-80
2021/10/29 15:00:49;;;;;;;4.35;2.40;;;;;;;;;;5065187;28;20223;-82
2021/10/29 15:03:31;;;;;;;3.42;2.88;;;;;;;;;;5067023;28;20190;-80
2021/10/29 15:17:19;;;;;;;3.28;2.97;;;;;;;;;;5067421;28;20222;-79
2021/10/29 15:25:29;;;;;;;3.00;2.80;;;;;;;;;;5061237;28;20190;-80
2021/10/29 15:28:08;;;;;;;3.67;2.50;;;;;;;;;;5063249;28;20425;-81
2021/10/29 15:30:41;;;;;;;2.88;2.03;;;;;;;;;;5061990;28;20231;-80
2021/10/29 15:33:28;;;;;;;2.92;2.63;;;;;;;;;;5063431;28;20267;-81
2021/10/29 15:44:23;;;;;;;3.60;3.10;;;;;;;;;;5056339;28;20222;-78
2021/10/29 15:46:57;;;;;;;4.90;3.33;;;;;;;;;;5057036;28;20238;-77
2021/10/29 15:49:38;;;;;;;2.92;2.65;;;;;;;;;;5061487;28;20199;-79
2021/10/29 15:52:12;;;;;;;33.55;4.85;;;;;;;;;;5059034;28;20286;-78
2021/10/29 15:54:42;;;;;;;10.18;4.20;;;;;;;;;;5057766;28;20238;-76
2021/10/29 15:57:10;;;;;;;7.75;3.33;;;;;;;;;;5050657;28;20200;-79
2021/10/29 15:59:44;;;;;;;8.60;3.58;;;;;;;;;;5057308;28;20203;-75
2021/10/29 16:02:31;;;;;;;6.22;3.40;;;;;;;;;;5057293;28;20566;-79
2021/10/29 16:18:42;;;;;;;3.50;2.70;;;;;;;;;;5054092;28;20213;-78
2021/10/29 16:21:09;;;;;;;6.72;3.50;;;;;;;;;;5068097;28;20222;-78
2021/10/29 16:23:37;;;;;;;5.85;4.30;;;;;;;;;;5059693;28;20195;-78
2021/10/29 16:26:08;;;;;;;3.38;3.08;;;;;;;;;;5059923;28;20199;-77
2021/10/29 16:28:36;;;;;;;8.07;3.00;;;;;;;;;;5058718;28;20248;-78
2021/10/29 16:31:03;;;;;;;3.92;3.17;;;;;;;;;;5060412;28;20199;-79
2021/10/29 16:33:33;;;;;;;4.50;3.33;;;;;;;;;;5058096;28;20213;-77
2021/10/29 16:36:01;;;;;;;4.97;3.00;;;;;;;;;;5057975;28;20261;-78
2021/10/29 16:38:28;;;;;;;5.80;3.25;;;;;;;;;;5058662;28;20244;-83
2021/10/29 16:40:57;;;;;;;3.83;3.25;;;;;;;;;;5060191;28;20215;-82
2021/10/29 16:43:24;;;;;;;6.28;2.55;;;;;;;;;;5058060;28;20206;-81
2021/10/29 16:45:52;;;;;;;4.22;2.90;;;;;;;;;;5060061;28;20740;-79
2021/10/29 16:48:20;;;;;;;3.25;2.42;;;;;;;;;;5061564;28;20688;-77
2021/10/29 16:50:48;;;;;;;7.45;3.30;;;;;;;;;;5059338;28;20199;-78
2021/10/29 16:53:15;;;;;;;4.05;3.00;;;;;;;;;;5057352;28;20199;-79
2021/10/29 16:55:43;;;;;;;4.78;2.65;;;;;;;;;;5059130;28;20647;-77
2021/10/29 16:58:11;;;;;;;3.33;2.63;;;;;;;;;;5058070;28;20306;-76
2021/10/29 17:00:40;;;;;;;3.67;3.00;;;;;;;;;;5060883;28;20707;-77
2021/10/29 17:03:07;;;;;;;3.90;2.40;;;;;;;;;;5059955;28;20238;-78
2021/10/29 17:05:34;;;;;;;3.17;2.92;;;;;;;;;;5055280;28;20211;-78
2021/10/29 17:08:04;;;;;;;2.45;2.13;;;;;;;;;;5062379;28;20194;-79
2021/10/29 17:10:31;;;;;;;3.00;2.65;;;;;;;;;;5069731;28;20219;-79
2021/10/29 17:12:59;;;;;;;3.15;2.28;;;;;;;;;;5065873;28;20203;-76
2021/10/29 17:15:27;;;;;;;2.30;2.10;;;;;;;;;;5059403;28;20206;-76
2021/10/29 17:17:55;;;;;;;3.80;3.40;;;;;;;;;;5048970;28;20199;-76
2021/10/29 17:20:22;;;;;;;3.92;3.15;;;;;;;;;;5055601;28;20670;-76
2021/10/29 17:22:50;;;;;;;3.08;2.78;;;;;;;;;;5059548;28;20252;-76
2021/10/29 17:25:17;;;;;;;7.30;3.03;;;;;;;;;;5058738;28;20229;-77
2021/10/29 17:27:44;;;;;;;3.63;3.30;;;;;;;;;;5056803;28;20195;-76
2021/10/29 17:30:13;;;;;;;2.70;2.45;;;;;;;;;;5056715;28;20207;-77
2021/10/29 17:32:42;;;;;;;3.50;2.80;;;;;;;;;;5056960;28;20199;-76
2021/10/29 17:35:09;;;;;;;2.60;2.40;;;;;;;;;;5058484;28;20199;-76
2021/10/29 17:37:36;;;;;;;3.83;2.90;;;;;;;;;;5047705;28;20207;-76
2021/10/29 17:40:04;;;;;;;3.47;2.75;;;;;;;;;;5054341;28;20697;-77
2021/10/29 17:42:32;;;;;;;6.00;2.97;;;;;;;;;;5056952;28;20247;-76
2021/10/29 17:44:59;;;;;;;3.25;2.63;;;;;;;;;;5058315;28;20187;-76
2021/10/29 17:47:26;;;;;;;3.15;2.80;;;;;;;;;;5057916;28;20708;-76
2021/10/29 17:49:55;;;;;;;2.60;2.38;;;;;;;;;;5054197;28;20218;-76
2021/10/29 17:52:24;;;;;;;3.50;2.80;;;;;;;;;;5057690;28;20675;-76
2021/10/29 17:54:53;;;;;;;2.65;2.45;;;;;;;;;;5056125;28;20653;-76
2021/10/29 17:57:20;;;;;;;2.63;2.42;;;;;;;;;;5057352;28;20226;-76
2021/10/29 17:59:48;;;;;;;2.40;2.20;;;;;;;;;;5058752;28;20195;-76
2021/10/29 18:02:21;;;;;;;2.70;2.30;;;;;;;;;;5062437;28;20217;-76
2021/10/29 18:04:48;;;;;;;3.05;2.55;;;;;;;;;;5052359;28;20682;-76
2021/10/29 18:07:18;;;;;;;4.03;2.90;;;;;;;;;;5070760;28;20573;-76
2021/10/29 18:09:46;;;;;;;3.22;2.50;;;;;;;;;;5062468;28;20773;-77
2021/10/29 18:12:13;;;;;;;3.13;2.83;;;;;;;;;;5055237;28;20187;-76
2021/10/29 18:14:42;;;;;;;2.65;2.22;;;;;;;;;;5056972;28;20201;-76
2021/10/29 18:17:09;;;;;;;2.75;2.25;;;;;;;;;;5058532;28;20290;-77
2021/10/29 18:19:37;;;;;;;3.08;2.70;;;;;;;;;;5057544;28;20199;-77
2021/10/29 18:22:06;;;;;;;2.70;2.50;;;;;;;;;;5056636;28;20574;-79
2021/10/29 18:24:34;;;;;;;2.95;2.70;;;;;;;;;;5057049;28;20222;-78
2021/10/29 18:27:02;;;;;;;2.90;2.58;;;;;;;;;;5047872;28;20192;-79
2021/10/29 18:29:29;;;;;;;3.25;2.20;;;;;;;;;;5054825;28;20559;-78
2021/10/29 18:31:56;;;;;;;4.57;4.13;;;;;;;;;;5058717;28;20685;-79
2021/10/29 18:34:25;;;;;;;3.88;3.20;;;;;;;;;;5061836;28;20195;-79
2021/10/29 18:36:52;;;;;;;4.13;2.92;;;;;;;;;;5058634;28;20571;-76
2021/10/29 18:39:19;;;;;;;4.47;2.67;;;;;;;;;;5057939;28;20208;-78
2021/10/29 18:41:47;;;;;;;2.55;2.35;;;;;;;;;;5063843;28;20215;-78
2021/10/29 18:44:14;;;;;;;5.15;4.25;;;;;;;;;;5061346;28;20203;-78
2021/10/29 18:46:42;;;;;;;5.13;3.25;;;;;;;;;;5060629;28;20573;-78
2021/10/29 18:49:10;;;;;;;3.67;3.25;;;;;;;;;;5061547;28;20195;-78
2021/10/29 18:51:37;;;;;;;3.60;3.03;;;;;;;;;;5057875;28;20199;-78